createdAt,value
2023-01-04T00:00:02.227Z,0.00
2023-01-04T00:01:01.578Z,0.00
2023-01-04T00:02:01.598Z,0.00
2023-01-04T00:03:05.370Z,0.00
2023-01-04T00:04:01.565Z,0.00
2023-01-04T00:05:01.490Z,0.00
2023-01-04T00:06:01.449Z,0.00
2023-01-04T00:07:01.424Z,0.00
2023-01-04T00:08:01.465Z,0.00
2023-01-04T00:09:01.425Z,0.00
2023-01-04T00:10:01.714Z,0.00
2023-01-04T00:11:01.384Z,0.00
2023-01-04T00:12:01.378Z,0.00
2023-01-04T00:13:01.632Z,0.00
2023-01-04T00:14:05.153Z,0.00
2023-01-04T00:15:01.343Z,0.00
2023-01-04T00:16:07.671Z,0.00
2023-01-04T00:17:06.153Z,0.00
2023-01-04T00:18:02.106Z,0.00
2023-01-04T00:19:01.278Z,0.00
2023-01-04T00:20:01.302Z,0.00
2023-01-04T00:21:01.537Z,0.00
2023-01-04T00:22:01.246Z,0.00
2023-01-04T00:23:01.224Z,0.00
2023-01-04T00:24:01.907Z,0.00
2023-01-04T00:25:01.208Z,0.00
2023-01-04T00:26:05.056Z,0.00
2023-01-04T00:27:01.185Z,0.00
2023-01-04T00:28:05.871Z,0.00
2023-01-04T00:29:01.198Z,0.00
2023-01-04T00:30:02.045Z,0.00
2023-01-04T00:31:01.160Z,0.00
2023-01-04T00:32:01.165Z,0.00
2023-01-04T00:33:01.100Z,0.00
2023-01-04T00:34:01.108Z,0.00
2023-01-04T00:35:01.804Z,0.00
2023-01-04T00:36:01.069Z,0.00
2023-01-04T00:37:05.770Z,0.00
2023-01-04T00:38:01.160Z,0.00
2023-01-04T00:39:01.031Z,0.00
2023-01-04T00:40:01.019Z,0.00
2023-01-04T00:41:01.691Z,0.00
2023-01-04T00:42:01.912Z,0.00
2023-01-04T00:43:00.993Z,0.00
2023-01-04T00:44:01.093Z,0.00
2023-01-04T00:45:00.952Z,0.00
2023-01-04T00:46:01.016Z,0.00
2023-01-04T00:47:00.920Z,0.00
2023-01-04T00:48:00.926Z,0.00
2023-01-04T00:49:01.168Z,0.00
2023-01-04T00:50:00.997Z,0.00
2023-01-04T00:51:00.885Z,0.00
2023-01-04T00:52:00.864Z,0.00
2023-01-04T00:53:00.845Z,0.00
2023-01-04T00:54:00.861Z,0.00
2023-01-04T00:55:00.818Z,0.00
2023-01-04T00:56:01.140Z,0.00
2023-01-04T00:57:01.613Z,0.00
2023-01-04T00:58:00.803Z,0.00
2023-01-04T00:59:00.789Z,0.00
2023-01-04T01:00:00.770Z,0.00
2023-01-04T01:01:00.768Z,0.00
2023-01-04T01:02:00.891Z,0.00
2023-01-04T01:03:01.027Z,0.00
2023-01-04T01:04:00.778Z,0.00
2023-01-04T01:05:01.479Z,0.00
2023-01-04T01:06:00.690Z,0.00
2023-01-04T01:07:00.944Z,0.00
2023-01-04T01:08:00.785Z,0.00
2023-01-04T01:09:00.687Z,0.00
2023-01-04T01:10:00.939Z,0.00
2023-01-04T01:11:01.130Z,0.00
2023-01-04T01:12:00.604Z,0.00
2023-01-04T01:13:00.589Z,0.00
2023-01-04T01:14:00.627Z,0.00
2023-01-04T01:15:00.955Z,0.00
2023-01-04T01:16:01.204Z,0.00
2023-01-04T01:17:00.618Z,0.00
2023-01-04T01:18:00.525Z,0.00
2023-01-04T01:19:00.513Z,0.00
2023-01-04T01:20:00.708Z,0.00
2023-01-04T01:21:04.372Z,0.00
2023-01-04T01:22:01.246Z,0.00
2023-01-04T01:23:00.484Z,0.00
2023-01-04T01:24:05.104Z,0.00
2023-01-04T01:25:00.722Z,0.00
2023-01-04T01:26:02.243Z,0.00
2023-01-04T01:27:00.412Z,0.00
2023-01-04T01:28:00.414Z,0.00
2023-01-04T01:29:04.364Z,0.00
2023-01-04T01:30:00.377Z,0.00
2023-01-04T01:31:05.140Z,0.00
2023-01-04T01:32:01.553Z,0.00
2023-01-04T01:33:01.117Z,0.00
2023-01-04T01:34:00.334Z,0.00
2023-01-04T01:35:01.095Z,0.00
2023-01-04T01:36:00.303Z,0.00
2023-01-04T01:37:00.278Z,0.00
2023-01-04T01:38:00.307Z,0.00
2023-01-04T01:39:00.267Z,0.00
2023-01-04T01:40:00.242Z,0.00
2023-01-04T01:41:00.238Z,0.00
2023-01-04T01:42:01.044Z,0.00
2023-01-04T01:43:00.899Z,0.00
2023-01-04T01:44:00.252Z,0.00
2023-01-04T01:45:00.300Z,0.00
2023-01-04T01:46:00.291Z,0.00
2023-01-04T01:47:00.327Z,0.00
2023-01-04T01:48:00.143Z,0.00
2023-01-04T01:49:00.131Z,0.00
2023-01-04T01:50:00.189Z,0.00
2023-01-04T01:51:00.119Z,0.00
2023-01-04T01:52:00.476Z,0.00
2023-01-04T01:53:00.101Z,0.00
2023-01-04T01:54:00.085Z,0.00
2023-01-04T01:55:00.109Z,0.00
2023-01-04T01:56:00.055Z,0.00
2023-01-04T01:57:00.028Z,0.00
2023-01-04T01:58:00.011Z,0.00
2023-01-04T01:59:00.003Z,0.00
2023-01-04T01:59:59.987Z,0.00
2023-01-04T02:00:59.970Z,0.00
2023-01-04T02:02:00.145Z,0.00
2023-01-04T02:03:04.087Z,0.00
2023-01-04T02:04:00.308Z,0.00
2023-01-04T02:04:59.927Z,0.00
2023-01-04T02:05:59.908Z,0.00
2023-01-04T02:06:59.923Z,0.00
2023-01-04T02:07:59.988Z,0.00
2023-01-04T02:08:59.869Z,0.00
2023-01-04T02:10:00.636Z,0.00
2023-01-04T02:11:03.651Z,0.00
2023-01-04T02:11:59.871Z,0.00
2023-01-04T02:12:59.826Z,0.00
2023-01-04T02:13:59.855Z,0.00
2023-01-04T02:15:00.106Z,0.00
2023-01-04T02:16:04.004Z,0.00
2023-01-04T02:16:59.872Z,0.00
2023-01-04T02:17:59.772Z,0.00
2023-01-04T02:18:59.744Z,0.00
2023-01-04T02:20:03.554Z,0.00
2023-01-04T02:20:59.714Z,0.00
2023-01-04T02:21:59.719Z,0.00
2023-01-04T02:22:59.701Z,0.00
2023-01-04T02:23:59.954Z,0.00
2023-01-04T02:24:59.680Z,0.00
2023-01-04T02:25:59.762Z,0.00
2023-01-04T02:26:59.679Z,0.00
2023-01-04T02:27:59.639Z,0.00
2023-01-04T02:28:59.625Z,0.00
2023-01-04T02:29:59.897Z,0.00
2023-01-04T02:31:03.569Z,0.00
2023-01-04T02:32:03.684Z,0.00
2023-01-04T02:32:59.565Z,0.00
2023-01-04T02:33:59.593Z,0.00
2023-01-04T02:34:59.860Z,0.00
2023-01-04T02:35:59.546Z,0.00
2023-01-04T02:37:03.466Z,0.00
2023-01-04T02:37:59.699Z,0.00
2023-01-04T02:38:59.537Z,0.00
2023-01-04T02:39:59.748Z,0.00
2023-01-04T02:41:00.439Z,0.00
2023-01-04T02:41:59.450Z,0.00
2023-01-04T02:42:59.734Z,0.00
2023-01-04T02:43:59.556Z,0.00
2023-01-04T02:44:59.424Z,0.00
2023-01-04T02:45:59.427Z,0.00
2023-01-04T02:46:59.479Z,0.00
2023-01-04T02:47:59.379Z,0.00
2023-01-04T02:48:59.355Z,0.00
2023-01-04T02:50:04.523Z,0.00
2023-01-04T02:51:01.361Z,0.00
2023-01-04T02:52:00.319Z,0.00
2023-01-04T02:52:59.311Z,0.00
2023-01-04T02:53:59.304Z,0.00
2023-01-04T02:54:59.293Z,0.00
2023-01-04T02:55:59.336Z,0.00
2023-01-04T02:57:04.811Z,0.00
2023-01-04T02:58:00.568Z,0.00
2023-01-04T02:58:59.232Z,0.00
2023-01-04T02:59:59.212Z,0.00
2023-01-04T03:00:59.219Z,0.00
2023-01-04T03:02:03.464Z,0.00
2023-01-04T03:02:59.325Z,0.00
2023-01-04T03:03:59.253Z,0.00
2023-01-04T03:04:59.171Z,0.00
2023-01-04T03:05:59.158Z,0.00
2023-01-04T03:06:59.137Z,0.00
2023-01-04T03:07:59.184Z,0.00
2023-01-04T03:08:59.112Z,0.00
2023-01-04T03:09:59.106Z,0.00
2023-01-04T03:10:59.090Z,0.00
2023-01-04T03:11:59.069Z,0.00
2023-01-04T03:13:02.819Z,0.00
2023-01-04T03:13:59.164Z,0.00
2023-01-04T03:14:59.043Z,0.00
2023-01-04T03:15:59.098Z,0.00
2023-01-04T03:17:02.955Z,0.00
2023-01-04T03:17:58.990Z,0.00
2023-01-04T03:18:58.975Z,0.00
2023-01-04T03:19:58.990Z,0.00
2023-01-04T03:20:58.948Z,0.00
2023-01-04T03:21:58.953Z,0.00
2023-01-04T03:23:03.653Z,0.00
2023-01-04T03:23:58.922Z,0.00
2023-01-04T03:25:02.802Z,0.00
2023-01-04T03:25:59.757Z,0.00
2023-01-04T03:26:58.879Z,0.00
2023-01-04T03:27:58.864Z,0.00
2023-01-04T03:28:58.867Z,0.00
2023-01-04T03:29:58.843Z,0.00
2023-01-04T03:30:58.844Z,0.00
2023-01-04T03:31:58.930Z,0.00
2023-01-04T03:32:58.811Z,0.00
2023-01-04T03:34:02.605Z,0.00
2023-01-04T03:34:59.786Z,0.00
2023-01-04T03:35:58.773Z,0.00
2023-01-04T03:36:58.745Z,0.00
2023-01-04T03:37:58.866Z,0.00
2023-01-04T03:38:58.716Z,0.00
2023-01-04T03:40:02.789Z,0.00
2023-01-04T03:40:58.697Z,0.00
2023-01-04T03:42:10.549Z,0.00
2023-01-04T03:42:58.672Z,0.00
2023-01-04T03:43:58.789Z,0.00
2023-01-04T03:45:09.724Z,0.00
2023-01-04T03:45:59.640Z,0.00
2023-01-04T03:46:58.696Z,0.00
2023-01-04T03:47:58.609Z,0.00
2023-01-04T03:48:58.607Z,0.00
2023-01-04T03:49:58.969Z,0.00
2023-01-04T03:50:58.575Z,0.00
2023-01-04T03:51:58.561Z,0.00
2023-01-04T03:53:02.575Z,0.00
2023-01-04T03:53:59.540Z,0.00
2023-01-04T03:55:02.378Z,0.00
2023-01-04T03:55:59.530Z,0.00
2023-01-04T03:56:58.491Z,0.00
2023-01-04T03:57:59.809Z,0.00
2023-01-04T03:58:58.473Z,0.00
2023-01-04T03:59:58.461Z,0.00
2023-01-04T04:00:58.476Z,0.00
2023-01-04T04:01:58.549Z,0.00
2023-01-04T04:02:58.419Z,0.00
2023-01-04T04:03:58.422Z,0.00
2023-01-04T04:04:58.402Z,0.00
2023-01-04T04:05:58.377Z,0.00
2023-01-04T04:06:58.385Z,0.00
2023-01-04T04:07:58.475Z,0.00
2023-01-04T04:08:58.351Z,0.00
2023-01-04T04:09:58.356Z,0.00
2023-01-04T04:10:58.605Z,0.00
2023-01-04T04:11:58.314Z,0.00
2023-01-04T04:12:58.308Z,0.00
2023-01-04T04:14:04.126Z,0.00
2023-01-04T04:15:00.294Z,0.00
2023-01-04T04:15:58.304Z,0.00
2023-01-04T04:16:58.606Z,0.00
2023-01-04T04:18:02.476Z,0.00
2023-01-04T04:19:00.830Z,0.00
2023-01-04T04:19:59.517Z,0.00
2023-01-04T04:20:58.207Z,0.00
2023-01-04T04:21:58.177Z,0.00
2023-01-04T04:22:58.193Z,0.00
2023-01-04T04:23:58.172Z,0.00
2023-01-04T04:24:58.163Z,0.00
2023-01-04T04:26:02.995Z,0.00
2023-01-04T04:26:58.136Z,0.00
2023-01-04T04:27:58.163Z,0.00
2023-01-04T04:28:58.114Z,0.00
2023-01-04T04:29:58.355Z,0.00
2023-01-04T04:30:59.075Z,0.00
2023-01-04T04:31:58.143Z,0.00
2023-01-04T04:32:58.049Z,0.00
2023-01-04T04:33:58.039Z,0.00
2023-01-04T04:34:58.049Z,0.00
2023-01-04T04:36:02.020Z,0.00
2023-01-04T04:36:57.995Z,0.00
2023-01-04T04:37:58.034Z,0.00
2023-01-04T04:38:57.968Z,0.00
2023-01-04T04:39:58.306Z,0.00
2023-01-04T04:40:57.955Z,0.00
2023-01-04T04:41:58.220Z,0.00
2023-01-04T04:42:58.905Z,0.00
2023-01-04T04:43:57.958Z,0.00
2023-01-04T04:44:58.925Z,0.00
2023-01-04T04:45:57.895Z,0.00
2023-01-04T04:46:57.876Z,0.00
2023-01-04T04:48:01.645Z,0.00
2023-01-04T04:48:57.842Z,0.00
2023-01-04T04:49:57.954Z,0.00
2023-01-04T04:50:58.233Z,0.00
2023-01-04T04:51:57.815Z,0.00
2023-01-04T04:52:58.180Z,0.00
2023-01-04T04:53:58.511Z,0.00
2023-01-04T04:54:57.784Z,0.00
2023-01-04T04:55:57.877Z,0.00
2023-01-04T04:56:57.761Z,0.00
2023-01-04T04:57:57.763Z,0.00
2023-01-04T04:58:57.839Z,0.00
2023-01-04T04:59:57.985Z,0.00
2023-01-04T05:00:57.746Z,0.00
2023-01-04T05:01:57.991Z,0.00
2023-01-04T05:02:57.805Z,0.00
2023-01-04T05:03:57.950Z,0.00
2023-01-04T05:05:01.540Z,0.00
2023-01-04T05:05:57.651Z,0.00
2023-01-04T05:06:57.621Z,0.00
2023-01-04T05:07:57.651Z,0.00
2023-01-04T05:08:58.423Z,0.00
2023-01-04T05:09:58.554Z,0.00
2023-01-04T05:10:58.397Z,0.00
2023-01-04T05:12:01.380Z,0.00
2023-01-04T05:12:58.127Z,0.00
2023-01-04T05:13:57.559Z,0.00
2023-01-04T05:14:57.523Z,0.00
2023-01-04T05:15:57.495Z,0.00
2023-01-04T05:16:57.574Z,0.00
2023-01-04T05:17:57.500Z,0.00
2023-01-04T05:18:57.477Z,0.00
2023-01-04T05:20:01.391Z,0.00
2023-01-04T05:20:57.685Z,0.00
2023-01-04T05:21:57.444Z,0.00
2023-01-04T05:22:57.441Z,0.00
2023-01-04T05:23:57.429Z,0.00
2023-01-04T05:24:57.717Z,0.00
2023-01-04T05:25:57.758Z,0.00
2023-01-04T05:26:57.470Z,0.00
2023-01-04T05:27:57.402Z,0.00
2023-01-04T05:28:57.345Z,0.00
2023-01-04T05:29:57.530Z,0.00
2023-01-04T05:31:01.090Z,0.00
2023-01-04T05:31:58.367Z,0.00
2023-01-04T05:33:01.173Z,0.00
2023-01-04T05:33:57.576Z,0.00
2023-01-04T05:34:57.264Z,0.00
2023-01-04T05:35:57.256Z,0.00
2023-01-04T05:36:57.717Z,0.00
2023-01-04T05:37:57.247Z,0.00
2023-01-04T05:38:58.980Z,0.00
2023-01-04T05:39:57.218Z,0.00
2023-01-04T05:40:57.198Z,0.00
2023-01-04T05:41:57.183Z,0.00
2023-01-04T05:42:57.705Z,0.00
2023-01-04T05:43:57.440Z,0.00
2023-01-04T05:44:57.164Z,0.00
2023-01-04T05:45:57.204Z,0.00
2023-01-04T05:46:57.123Z,0.00
2023-01-04T05:47:57.109Z,0.00
2023-01-04T05:48:57.145Z,0.00
2023-01-04T05:49:57.090Z,0.00
2023-01-04T05:50:57.088Z,0.00
2023-01-04T05:51:57.050Z,0.00
2023-01-04T05:52:57.063Z,0.00
2023-01-04T05:53:58.798Z,0.00
2023-01-04T05:54:57.743Z,0.00
2023-01-04T05:55:57.129Z,0.00
2023-01-04T05:56:57.626Z,0.00
2023-01-04T05:57:57.704Z,0.00
2023-01-04T05:58:57.697Z,0.00
2023-01-04T05:59:57.010Z,0.00
2023-01-04T06:00:57.697Z,0.00
2023-01-04T06:01:57.020Z,0.00
2023-01-04T06:02:57.810Z,0.00
2023-01-04T06:03:56.956Z,0.00
2023-01-04T06:04:59.404Z,0.00
2023-01-04T06:05:57.585Z,0.00
2023-01-04T06:06:56.869Z,0.00
2023-01-04T06:07:56.851Z,0.00
2023-01-04T06:08:57.533Z,0.00
2023-01-04T06:09:56.832Z,0.00
2023-01-04T06:10:56.830Z,0.00
2023-01-04T06:11:57.639Z,0.00
2023-01-04T06:12:57.548Z,0.00
2023-01-04T06:13:56.783Z,0.00
2023-01-04T06:14:56.762Z,0.00
2023-01-04T06:15:57.541Z,0.00
2023-01-04T06:16:56.788Z,0.00
2023-01-04T06:17:56.764Z,0.00
2023-01-04T06:18:56.713Z,0.00
2023-01-04T06:19:56.692Z,0.00
2023-01-04T06:21:00.643Z,0.00
2023-01-04T06:21:56.667Z,0.00
2023-01-04T06:22:56.815Z,0.00
2023-01-04T06:23:56.787Z,0.00
2023-01-04T06:24:56.659Z,0.00
2023-01-04T06:25:56.880Z,0.00
2023-01-04T06:26:56.611Z,0.00
2023-01-04T06:27:56.921Z,0.00
2023-01-04T06:28:56.588Z,0.00
2023-01-04T06:29:56.616Z,0.00
2023-01-04T06:30:56.593Z,0.00
2023-01-04T06:32:00.868Z,0.00
2023-01-04T06:33:01.033Z,0.00
2023-01-04T06:33:56.537Z,0.00
2023-01-04T06:34:57.114Z,0.00
2023-01-04T06:35:56.629Z,0.00
2023-01-04T06:36:56.504Z,0.00
2023-01-04T06:37:56.749Z,0.00
2023-01-04T06:38:57.105Z,0.00
2023-01-04T06:39:56.748Z,0.00
2023-01-04T06:40:57.265Z,0.00
2023-01-04T06:42:05.508Z,0.00
2023-01-04T06:42:57.565Z,0.00
2023-01-04T06:43:56.654Z,0.00
2023-01-04T06:44:56.394Z,0.00
2023-01-04T06:45:57.016Z,0.00
2023-01-04T06:46:56.382Z,0.00
2023-01-04T06:47:56.693Z,0.00
2023-01-04T06:48:56.348Z,0.00
2023-01-04T06:49:56.967Z,0.00
2023-01-04T06:50:56.313Z,0.00
2023-01-04T06:51:56.773Z,0.00
2023-01-04T06:52:56.285Z,0.00
2023-01-04T06:53:56.463Z,0.00
2023-01-04T06:54:56.313Z,0.00
2023-01-04T06:55:56.715Z,0.00
2023-01-04T06:56:56.665Z,0.00
2023-01-04T06:57:59.595Z,0.00
2023-01-04T06:58:56.496Z,0.00
2023-01-04T06:59:56.477Z,0.00
2023-01-04T07:00:56.260Z,0.00
2023-01-04T07:01:56.898Z,0.00
2023-01-04T07:03:13.727Z,0.00
2023-01-04T07:03:57.175Z,1.00
2023-01-04T07:04:56.607Z,1.00
2023-01-04T07:05:56.469Z,1.00
2023-01-04T07:06:56.123Z,1.00
2023-01-04T07:07:56.225Z,0.00
2023-01-04T07:08:56.102Z,0.00
2023-01-04T07:09:56.094Z,1.00
2023-01-04T07:10:56.285Z,1.00
2023-01-04T07:11:56.581Z,1.00
2023-01-04T07:12:56.873Z,1.00
2023-01-04T07:13:56.043Z,1.00
2023-01-04T07:14:56.278Z,1.00
2023-01-04T07:15:56.051Z,1.00
2023-01-04T07:16:56.024Z,1.00
2023-01-04T07:17:56.011Z,0.00
2023-01-04T07:18:56.115Z,0.00
2023-01-04T07:19:56.646Z,0.00
2023-01-04T07:20:56.062Z,2.00
2023-01-04T07:21:56.086Z,2.00
2023-01-04T07:22:56.098Z,4.00
2023-01-04T07:23:56.601Z,4.00
2023-01-04T07:24:56.125Z,4.00
2023-01-04T07:25:55.878Z,4.00
2023-01-04T07:26:56.168Z,4.00
2023-01-04T07:27:56.177Z,7.00
2023-01-04T07:28:56.176Z,4.00
2023-01-04T07:29:56.294Z,6.00
2023-01-04T07:30:56.280Z,13.00
2023-01-04T07:31:56.234Z,16.00
2023-01-04T07:32:56.747Z,15.00
2023-01-04T07:33:55.840Z,18.00
2023-01-04T07:34:56.307Z,18.00
2023-01-04T07:35:55.800Z,20.00
2023-01-04T07:37:00.019Z,27.00
2023-01-04T07:37:58.689Z,30.00
2023-01-04T07:38:56.303Z,31.00
2023-01-04T07:39:55.712Z,35.00
2023-01-04T07:40:57.137Z,37.00
2023-01-04T07:41:56.635Z,42.00
2023-01-04T07:42:55.722Z,50.00
2023-01-04T07:43:55.735Z,62.00
2023-01-04T07:44:55.755Z,63.00
2023-01-04T07:45:56.177Z,64.00
2023-01-04T07:46:55.677Z,59.00
2023-01-04T07:47:56.434Z,57.00
2023-01-04T07:48:55.897Z,56.00
2023-01-04T07:49:55.860Z,58.00
2023-01-04T07:50:55.869Z,59.00
2023-01-04T07:51:55.666Z,76.00
2023-01-04T07:52:56.289Z,84.00
2023-01-04T07:53:55.538Z,81.00
2023-01-04T07:54:55.606Z,81.00
2023-01-04T07:55:56.329Z,76.00
2023-01-04T07:56:56.088Z,84.00
2023-01-04T07:57:55.625Z,95.00
2023-01-04T07:58:55.598Z,97.00
2023-01-04T07:59:56.295Z,129.00
2023-01-04T08:00:55.609Z,125.00
2023-01-04T08:01:55.903Z,135.00
2023-01-04T08:02:55.967Z,136.00
2023-01-04T08:03:55.630Z,129.00
2023-01-04T08:04:55.884Z,128.00
2023-01-04T08:05:55.597Z,155.00
2023-01-04T08:06:55.599Z,135.00
2023-01-04T08:07:55.353Z,148.00
2023-01-04T08:08:55.598Z,123.00
2023-01-04T08:09:55.331Z,139.00
2023-01-04T08:10:55.603Z,141.00
2023-01-04T08:11:55.327Z,152.00
2023-01-04T08:12:55.351Z,150.00
2023-01-04T08:13:55.598Z,159.00
2023-01-04T08:14:56.347Z,157.00
2023-01-04T08:15:55.436Z,184.00
2023-01-04T08:16:55.784Z,182.00
2023-01-04T08:17:55.266Z,203.00
2023-01-04T08:18:56.022Z,221.00
2023-01-04T08:19:55.234Z,224.00
2023-01-04T08:20:58.590Z,239.00
2023-01-04T08:21:55.524Z,241.00
2023-01-04T08:22:55.584Z,266.00
2023-01-04T08:23:55.524Z,306.00
2023-01-04T08:24:56.387Z,319.00
2023-01-04T08:25:56.897Z,331.00
2023-01-04T08:26:55.186Z,375.00
2023-01-04T08:27:55.116Z,442.00
2023-01-04T08:28:55.474Z,422.00
2023-01-04T08:29:55.586Z,445.00
2023-01-04T08:30:55.629Z,495.00
2023-01-04T08:31:55.452Z,445.00
2023-01-04T08:32:55.351Z,441.00
2023-01-04T08:33:55.033Z,442.00
2023-01-04T08:34:55.322Z,459.00
2023-01-04T08:35:55.160Z,488.00
2023-01-04T08:36:55.048Z,608.00
2023-01-04T08:38:07.303Z,564.00
2023-01-04T08:39:01.023Z,580.00
2023-01-04T08:40:00.125Z,520.00
2023-01-04T08:40:58.698Z,552.00
2023-01-04T08:41:59.420Z,469.00
2023-01-04T08:42:56.074Z,481.00
2023-01-04T08:43:55.209Z,448.00
2023-01-04T08:44:59.103Z,441.00
2023-01-04T08:45:55.180Z,524.00
2023-01-04T08:46:55.155Z,572.00
2023-01-04T08:47:55.813Z,580.00
2023-01-04T08:48:55.140Z,704.00
2023-01-04T08:49:55.329Z,738.00
2023-01-04T08:50:55.126Z,729.00
2023-01-04T08:51:54.827Z,784.00
2023-01-04T08:52:55.125Z,898.00
2023-01-04T08:53:55.541Z,823.00
2023-01-04T08:54:56.045Z,825.00
2023-01-04T08:55:54.765Z,754.00
2023-01-04T08:56:55.154Z,681.00
2023-01-04T08:57:54.770Z,704.00
2023-01-04T08:58:56.541Z,682.00
2023-01-04T08:59:55.054Z,723.00
2023-01-04T09:00:55.129Z,658.00
2023-01-04T09:01:58.463Z,788.00
2023-01-04T09:02:56.230Z,902.00
2023-01-04T09:03:55.472Z,762.00
2023-01-04T09:04:55.026Z,581.00
2023-01-04T09:05:54.904Z,540.00
2023-01-04T09:06:54.622Z,467.00
2023-01-04T09:07:55.434Z,531.00
2023-01-04T09:08:54.970Z,547.00
2023-01-04T09:09:54.701Z,567.00
2023-01-04T09:10:54.740Z,554.00
2023-01-04T09:11:54.562Z,571.00
2023-01-04T09:12:55.201Z,512.00
2023-01-04T09:13:54.948Z,444.00
2023-01-04T09:14:55.418Z,452.00
2023-01-04T09:15:55.610Z,417.00
2023-01-04T09:16:54.839Z,359.00
2023-01-04T09:18:55.458Z,366.00
2023-01-04T09:19:54.859Z,287.00
2023-01-04T09:20:55.084Z,323.00
2023-01-04T09:21:55.142Z,360.00
2023-01-04T09:22:55.334Z,418.00
2023-01-04T09:23:54.405Z,657.00
2023-01-04T09:24:55.400Z,797.00
2023-01-04T09:25:54.379Z,790.00
2023-01-04T09:26:54.527Z,737.00
2023-01-04T09:27:54.720Z,790.00
2023-01-04T09:28:54.689Z,868.00
2023-01-04T09:29:55.146Z,1095.00
2023-01-04T09:30:55.158Z,1332.00
2023-01-04T09:31:55.354Z,1705.00
2023-01-04T09:32:54.419Z,2018.00
2023-01-04T09:34:55.538Z,2501.00
2023-01-04T09:35:54.360Z,2182.00
2023-01-04T09:36:54.250Z,2431.00
2023-01-04T09:37:54.392Z,2229.00
2023-01-04T09:38:54.404Z,2541.00
2023-01-04T09:39:54.467Z,2398.00
2023-01-04T09:40:54.439Z,2139.00
2023-01-04T09:41:54.340Z,1862.00
2023-01-04T09:43:21.005Z,1726.00
2023-01-04T09:43:55.541Z,1727.00
2023-01-04T09:45:55.523Z,1330.00
2023-01-04T09:46:54.609Z,1164.00
2023-01-04T09:47:54.577Z,1057.00
2023-01-04T09:48:54.570Z,1057.00
2023-01-04T09:49:55.147Z,1153.00
2023-01-04T09:50:54.316Z,1345.00
2023-01-04T09:51:54.526Z,1877.00
2023-01-04T09:52:54.512Z,2003.00
2023-01-04T09:53:54.631Z,2051.00
2023-01-04T09:54:56.186Z,1814.00
2023-01-04T09:55:55.508Z,1788.00
2023-01-04T09:56:54.521Z,1834.00
2023-01-04T09:57:54.787Z,1757.00
2023-01-04T09:58:54.700Z,1748.00
2023-01-04T09:59:54.321Z,1892.00
2023-01-04T10:00:54.265Z,2014.00
2023-01-04T10:01:54.946Z,1982.00
2023-01-04T10:02:54.366Z,2033.00
2023-01-04T10:03:54.490Z,1740.00
2023-01-04T10:04:54.670Z,2047.00
2023-01-04T10:05:54.149Z,2443.00
2023-01-04T10:06:56.149Z,2547.00
2023-01-04T10:07:54.899Z,2560.00
2023-01-04T10:08:53.828Z,1904.00
2023-01-04T10:09:53.922Z,1945.00
2023-01-04T10:10:54.578Z,2030.00
2023-01-04T10:11:54.516Z,1887.00
2023-01-04T10:12:59.671Z,2215.00
2023-01-04T10:13:55.497Z,2530.00
2023-01-04T10:14:54.582Z,2457.00
2023-01-04T10:15:54.629Z,2000.00
2023-01-04T10:17:12.550Z,1819.00
2023-01-04T10:19:50.458Z,1793.00
2023-01-04T10:19:59.824Z,1789.00
2023-01-04T10:21:55.050Z,2066.00
2023-01-04T10:22:53.667Z,1869.00
2023-01-04T10:23:54.380Z,1967.00
2023-01-04T10:24:53.845Z,2081.00
2023-01-04T10:25:53.954Z,2018.00
2023-01-04T10:26:54.431Z,2226.00
2023-01-04T10:27:53.920Z,2292.00
2023-01-04T10:28:53.597Z,2155.00
2023-01-04T10:29:53.890Z,2162.00
2023-01-04T10:30:53.724Z,2090.00
2023-01-04T10:31:53.618Z,2121.00
2023-01-04T10:32:54.351Z,2300.00
2023-01-04T10:33:53.929Z,2044.00
2023-01-04T10:34:54.350Z,2222.00
2023-01-04T10:35:53.524Z,1966.00
2023-01-04T10:36:54.069Z,2021.00
2023-01-04T10:37:53.513Z,2078.00
2023-01-04T10:38:54.276Z,2106.00
2023-01-04T10:39:53.473Z,2221.00
2023-01-04T10:40:53.475Z,2246.00
2023-01-04T10:41:53.431Z,2146.00
2023-01-04T10:42:53.405Z,2381.00
2023-01-04T10:44:13.931Z,2369.00
2023-01-04T10:44:54.443Z,2582.00
2023-01-04T10:45:53.393Z,2379.00
2023-01-04T10:46:53.521Z,2417.00
2023-01-04T10:47:57.291Z,1989.00
2023-01-04T10:48:53.430Z,2428.00
2023-01-04T10:49:53.727Z,2389.00
2023-01-04T10:50:53.638Z,1855.00
2023-01-04T10:51:54.257Z,2078.00
2023-01-04T10:52:54.241Z,2258.00
2023-01-04T10:53:53.492Z,2788.00
2023-01-04T10:54:53.511Z,2553.00
2023-01-04T10:56:24.982Z,2462.00
2023-01-04T10:56:54.300Z,2324.00
2023-01-04T10:57:53.493Z,2458.00
2023-01-04T10:58:53.249Z,2325.00
2023-01-04T10:59:53.478Z,2349.00
2023-01-04T11:00:53.338Z,2273.00
2023-01-04T11:01:53.641Z,2066.00
2023-01-04T11:02:54.248Z,2668.00
2023-01-04T11:03:54.174Z,2534.00
2023-01-04T11:04:57.452Z,2312.00
2023-01-04T11:05:54.874Z,2019.00
2023-01-04T11:06:53.265Z,2678.00
2023-01-04T11:07:53.199Z,2465.00
2023-01-04T11:08:53.379Z,2316.00
2023-01-04T11:09:53.510Z,2363.00
2023-01-04T11:10:53.477Z,1971.00
2023-01-04T11:11:53.041Z,2687.00
2023-01-04T11:12:53.459Z,2698.00
2023-01-04T11:13:53.134Z,2848.00
2023-01-04T11:14:53.972Z,2734.00
2023-01-04T11:15:53.507Z,2947.00
2023-01-04T11:16:53.486Z,2993.00
2023-01-04T11:17:53.345Z,2695.00
2023-01-04T11:18:53.473Z,2592.00
2023-01-04T11:19:53.473Z,2578.00
2023-01-04T11:20:52.945Z,2172.00
2023-01-04T11:21:56.837Z,2567.00
2023-01-04T11:22:52.949Z,2816.00
2023-01-04T11:23:56.503Z,2963.00
2023-01-04T11:25:33.057Z,2918.00
2023-01-04T11:25:56.533Z,3745.00
2023-01-04T11:26:53.437Z,3340.00
2023-01-04T11:27:53.033Z,3403.00
2023-01-04T11:28:53.436Z,3221.00
2023-01-04T11:29:57.602Z,2833.00
2023-01-04T11:30:52.999Z,2865.00
2023-01-04T11:31:53.086Z,2707.00
2023-01-04T11:32:53.439Z,2977.00
2023-01-04T11:33:53.204Z,2766.00
2023-01-04T11:34:53.481Z,3050.00
2023-01-04T11:35:53.687Z,3423.00
2023-01-04T11:36:53.735Z,4126.00
2023-01-04T11:38:14.593Z,3163.00
2023-01-04T11:38:55.263Z,3556.00
2023-01-04T11:39:52.786Z,2794.00
2023-01-04T11:40:53.900Z,2333.00
2023-01-04T11:41:57.370Z,2782.00
2023-01-04T11:42:55.138Z,2633.00
2023-01-04T11:43:53.123Z,2295.00
2023-01-04T11:44:53.248Z,2200.00
2023-01-04T11:45:56.898Z,2313.00
2023-01-04T11:46:53.613Z,2533.00
2023-01-04T11:47:54.426Z,2983.00
2023-01-04T11:48:52.931Z,2643.00
2023-01-04T11:49:52.875Z,2252.00
2023-01-04T11:50:52.560Z,2296.00
2023-01-04T11:51:52.812Z,2154.00
2023-01-04T11:52:56.444Z,2485.00
2023-01-04T11:53:53.338Z,2005.00
2023-01-04T11:54:52.529Z,1646.00
2023-01-04T11:55:52.568Z,1716.00
2023-01-04T11:56:53.159Z,1880.00
2023-01-04T11:57:52.628Z,1851.00
2023-01-04T11:58:53.392Z,1920.00
2023-01-04T11:59:52.655Z,2320.00
2023-01-04T12:00:52.462Z,2235.00
2023-01-04T12:01:55.512Z,2232.00
2023-01-04T12:03:01.649Z,2052.00
2023-01-04T12:03:53.394Z,2269.00
2023-01-04T12:04:52.501Z,2564.00
2023-01-04T12:05:52.750Z,1932.00
2023-01-04T12:06:52.368Z,2330.00
2023-01-04T12:07:52.530Z,2218.00
2023-01-04T12:08:53.153Z,2476.00
2023-01-04T12:09:54.104Z,2408.00
2023-01-04T12:10:52.433Z,2440.00
2023-01-04T12:11:52.828Z,2255.00
2023-01-04T12:12:52.393Z,2037.00
2023-01-04T12:13:53.513Z,2344.00
2023-01-04T12:14:52.680Z,2277.00
2023-01-04T12:15:52.332Z,2636.00
2023-01-04T12:16:52.484Z,2615.00
2023-01-04T12:17:56.836Z,2494.00
2023-01-04T12:18:52.197Z,2166.00
2023-01-04T12:19:52.385Z,2246.00
2023-01-04T12:20:52.395Z,2331.00
2023-01-04T12:21:52.599Z,2269.00
2023-01-04T12:22:52.201Z,2350.00
2023-01-04T12:23:52.955Z,2175.00
2023-01-04T12:24:58.419Z,2584.00
2023-01-04T12:25:53.411Z,2425.00
2023-01-04T12:26:52.538Z,2678.00
2023-01-04T12:27:52.180Z,2432.00
2023-01-04T12:28:52.921Z,2468.00
2023-01-04T12:29:52.268Z,2239.00
2023-01-04T12:30:52.062Z,2048.00
2023-01-04T12:31:52.560Z,2344.00
2023-01-04T12:32:52.057Z,2486.00
2023-01-04T12:33:52.096Z,2470.00
2023-01-04T12:34:52.859Z,2594.00
2023-01-04T12:35:52.179Z,2494.00
2023-01-04T12:36:52.828Z,2159.00
2023-01-04T12:37:52.025Z,2499.00
2023-01-04T12:38:52.978Z,2453.00
2023-01-04T12:39:52.172Z,1945.00
2023-01-04T12:40:52.287Z,2143.00
2023-01-04T12:41:52.182Z,2112.00
2023-01-04T12:42:52.254Z,2254.00
2023-01-04T12:43:52.093Z,1960.00
2023-01-04T12:44:51.967Z,1679.00
2023-01-04T12:45:52.527Z,1749.00
2023-01-04T12:46:57.638Z,1836.00
2023-01-04T12:47:52.919Z,2066.00
2023-01-04T12:48:52.319Z,2137.00
2023-01-04T12:49:52.081Z,1975.00
2023-01-04T12:51:13.256Z,2169.00
2023-01-04T12:52:20.919Z,1884.00
2023-01-04T12:53:11.226Z,2035.00
2023-01-04T12:53:53.022Z,1904.00
2023-01-04T12:54:51.844Z,1703.00
2023-01-04T12:55:51.720Z,1894.00